sensor_id;sensor_type;location;lat;lon;timestamp;P1;durP1;ratioP1;P2;durP2;ratioP2
49440;SDS011;35317;51.978;6.296;2022-09-09T00:00:33;9.75;;;4.88;;
49440;SDS011;35317;51.978;6.296;2022-09-09T00:05:52;10.75;;;5.30;;
49440;SDS011;35317;51.978;6.296;2022-09-09T00:11:08;11.50;;;6.53;;
49440;SDS011;35317;51.978;6.296;2022-09-09T00:16:20;16.70;;;8.65;;
49440;SDS011;35317;51.978;6.296;2022-09-09T00:21:33;13.40;;;10.07;;
49440;SDS011;35317;51.978;6.296;2022-09-09T00:31:45;13.23;;;9.30;;
49440;SDS011;35317;51.978;6.296;2022-09-09T00:36:48;14.50;;;8.90;;
49440;SDS011;35317;51.978;6.296;2022-09-09T00:42:13;10.88;;;6.50;;
49440;SDS011;35317;51.978;6.296;2022-09-09T00:47:31;8.65;;;6.05;;
49440;SDS011;35317;51.978;6.296;2022-09-09T00:58:20;7.40;;;5.20;;
49440;SDS011;35317;51.978;6.296;2022-09-09T01:03:34;7.22;;;4.60;;
49440;SDS011;35317;51.978;6.296;2022-09-09T01:14:30;9.23;;;5.72;;
49440;SDS011;35317;51.978;6.296;2022-09-09T01:30:19;14.55;;;10.80;;
49440;SDS011;35317;51.978;6.296;2022-09-09T01:40:42;8.40;;;5.70;;
49440;SDS011;35317;51.978;6.296;2022-09-09T01:45:44;13.35;;;8.55;;
49440;SDS011;35317;51.978;6.296;2022-09-09T01:50:49;16.05;;;11.30;;
49440;SDS011;35317;51.978;6.296;2022-09-09T01:56:04;22.42;;;15.38;;
49440;SDS011;35317;51.978;6.296;2022-09-09T02:12:41;16.55;;;10.80;;
49440;SDS011;35317;51.978;6.296;2022-09-09T02:17:48;13.68;;;8.93;;
49440;SDS011;35317;51.978;6.296;2022-09-09T02:22:52;13.60;;;7.78;;
49440;SDS011;35317;51.978;6.296;2022-09-09T02:27:53;11.27;;;8.05;;
49440;SDS011;35317;51.978;6.296;2022-09-09T02:32:55;12.20;;;8.07;;
49440;SDS011;35317;51.978;6.296;2022-09-09T02:38:00;10.98;;;8.20;;
49440;SDS011;35317;51.978;6.296;2022-09-09T02:43:05;12.25;;;7.28;;
49440;SDS011;35317;51.978;6.296;2022-09-09T02:48:25;9.65;;;7.03;;
49440;SDS011;35317;51.978;6.296;2022-09-09T02:53:45;11.98;;;7.55;;
49440;SDS011;35317;51.978;6.296;2022-09-09T02:59:05;11.45;;;7.70;;
49440;SDS011;35317;51.978;6.296;2022-09-09T03:04:06;11.38;;;8.02;;
49440;SDS011;35317;51.978;6.296;2022-09-09T03:09:06;10.10;;;6.53;;
49440;SDS011;35317;51.978;6.296;2022-09-09T03:14:10;13.77;;;7.80;;
49440;SDS011;35317;51.978;6.296;2022-09-09T03:19:11;14.00;;;8.10;;
49440;SDS011;35317;51.978;6.296;2022-09-09T03:24:12;16.88;;;8.77;;
49440;SDS011;35317;51.978;6.296;2022-09-09T03:29:14;13.07;;;8.77;;
49440;SDS011;35317;51.978;6.296;2022-09-09T03:34:15;14.10;;;8.82;;
49440;SDS011;35317;51.978;6.296;2022-09-09T03:39:16;16.48;;;9.57;;
49440;SDS011;35317;51.978;6.296;2022-09-09T03:44:17;17.80;;;11.00;;
49440;SDS011;35317;51.978;6.296;2022-09-09T03:49:17;12.95;;;9.50;;
49440;SDS011;35317;51.978;6.296;2022-09-09T03:54:20;22.15;;;11.18;;
49440;SDS011;35317;51.978;6.296;2022-09-09T03:59:20;17.02;;;9.90;;
49440;SDS011;35317;51.978;6.296;2022-09-09T04:04:22;18.90;;;11.50;;
49440;SDS011;35317;51.978;6.296;2022-09-09T04:09:22;15.77;;;10.63;;
49440;SDS011;35317;51.978;6.296;2022-09-09T04:14:23;15.98;;;11.05;;
49440;SDS011;35317;51.978;6.296;2022-09-09T04:19:28;17.27;;;11.32;;
49440;SDS011;35317;51.978;6.296;2022-09-09T04:24:31;18.30;;;12.00;;
49440;SDS011;35317;51.978;6.296;2022-09-09T04:29:32;14.90;;;10.88;;
49440;SDS011;35317;51.978;6.296;2022-09-09T04:34:33;17.38;;;11.38;;
49440;SDS011;35317;51.978;6.296;2022-09-09T04:39:34;26.23;;;12.30;;
49440;SDS011;35317;51.978;6.296;2022-09-09T04:44:47;18.60;;;10.20;;
49440;SDS011;35317;51.978;6.296;2022-09-09T04:49:48;23.25;;;11.32;;
49440;SDS011;35317;51.978;6.296;2022-09-09T04:54:48;14.80;;;9.88;;
49440;SDS011;35317;51.978;6.296;2022-09-09T04:59:49;14.45;;;9.52;;
49440;SDS011;35317;51.978;6.296;2022-09-09T05:04:50;13.85;;;8.90;;
49440;SDS011;35317;51.978;6.296;2022-09-09T05:09:50;17.88;;;9.55;;
49440;SDS011;35317;51.978;6.296;2022-09-09T05:14:52;12.27;;;8.30;;
49440;SDS011;35317;51.978;6.296;2022-09-09T05:19:53;19.63;;;8.57;;
49440;SDS011;35317;51.978;6.296;2022-09-09T05:24:53;15.13;;;7.70;;
49440;SDS011;35317;51.978;6.296;2022-09-09T05:29:54;12.98;;;8.02;;
49440;SDS011;35317;51.978;6.296;2022-09-09T05:34:55;25.27;;;8.05;;
49440;SDS011;35317;51.978;6.296;2022-09-09T05:39:56;17.15;;;8.25;;
49440;SDS011;35317;51.978;6.296;2022-09-09T05:44:58;15.23;;;8.15;;
49440;SDS011;35317;51.978;6.296;2022-09-09T05:49:58;18.30;;;7.43;;
49440;SDS011;35317;51.978;6.296;2022-09-09T05:54:59;12.73;;;6.80;;
49440;SDS011;35317;51.978;6.296;2022-09-09T06:00:00;20.45;;;7.38;;
49440;SDS011;35317;51.978;6.296;2022-09-09T06:05:01;16.50;;;7.05;;
49440;SDS011;35317;51.978;6.296;2022-09-09T06:10:02;14.70;;;6.60;;
49440;SDS011;35317;51.978;6.296;2022-09-09T06:15:03;14.75;;;6.15;;
49440;SDS011;35317;51.978;6.296;2022-09-09T06:20:05;13.32;;;6.40;;
49440;SDS011;35317;51.978;6.296;2022-09-09T06:25:07;14.73;;;6.00;;
49440;SDS011;35317;51.978;6.296;2022-09-09T06:30:09;17.15;;;6.13;;
49440;SDS011;35317;51.978;6.296;2022-09-09T06:35:11;14.40;;;5.38;;
49440;SDS011;35317;51.978;6.296;2022-09-09T06:40:13;14.82;;;6.30;;
49440;SDS011;35317;51.978;6.296;2022-09-09T06:45:15;11.80;;;5.40;;
49440;SDS011;35317;51.978;6.296;2022-09-09T06:50:16;16.98;;;5.97;;
49440;SDS011;35317;51.978;6.296;2022-09-09T06:55:18;13.70;;;5.13;;
49440;SDS011;35317;51.978;6.296;2022-09-09T07:00:19;14.55;;;4.85;;
49440;SDS011;35317;51.978;6.296;2022-09-09T07:05:20;10.73;;;4.05;;
49440;SDS011;35317;51.978;6.296;2022-09-09T07:10:21;10.98;;;4.03;;
49440;SDS011;35317;51.978;6.296;2022-09-09T07:15:22;19.88;;;5.85;;
49440;SDS011;35317;51.978;6.296;2022-09-09T07:20:23;13.00;;;4.55;;
49440;SDS011;35317;51.978;6.296;2022-09-09T07:25:23;13.10;;;4.80;;
49440;SDS011;35317;51.978;6.296;2022-09-09T07:30:26;12.35;;;4.20;;
49440;SDS011;35317;51.978;6.296;2022-09-09T07:35:28;9.27;;;4.80;;
49440;SDS011;35317;51.978;6.296;2022-09-09T07:40:28;15.88;;;5.07;;
49440;SDS011;35317;51.978;6.296;2022-09-09T07:45:30;12.85;;;3.92;;
49440;SDS011;35317;51.978;6.296;2022-09-09T07:50:32;16.85;;;3.85;;
49440;SDS011;35317;51.978;6.296;2022-09-09T07:55:33;11.30;;;3.10;;
49440;SDS011;35317;51.978;6.296;2022-09-09T08:00:34;15.85;;;3.72;;
49440;SDS011;35317;51.978;6.296;2022-09-09T08:05:34;9.30;;;3.03;;
49440;SDS011;35317;51.978;6.296;2022-09-09T08:10:35;18.33;;;3.13;;
49440;SDS011;35317;51.978;6.296;2022-09-09T08:15:36;12.30;;;2.47;;
49440;SDS011;35317;51.978;6.296;2022-09-09T08:20:37;12.55;;;2.42;;
49440;SDS011;35317;51.978;6.296;2022-09-09T08:25:37;12.02;;;3.00;;
49440;SDS011;35317;51.978;6.296;2022-09-09T08:30:38;14.63;;;2.55;;
49440;SDS011;35317;51.978;6.296;2022-09-09T08:35:39;12.27;;;2.17;;
49440;SDS011;35317;51.978;6.296;2022-09-09T08:40:49;17.77;;;2.80;;
49440;SDS011;35317;51.978;6.296;2022-09-09T08:46:07;8.95;;;2.65;;
49440;SDS011;35317;51.978;6.296;2022-09-09T08:51:13;11.32;;;2.60;;
49440;SDS011;35317;51.978;6.296;2022-09-09T08:56:21;11.15;;;2.78;;
49440;SDS011;35317;51.978;6.296;2022-09-09T09:01:28;8.98;;;2.75;;
49440;SDS011;35317;51.978;6.296;2022-09-09T09:12:42;9.02;;;1.90;;
49440;SDS011;35317;51.978;6.296;2022-09-09T09:17:44;7.60;;;1.70;;
49440;SDS011;35317;51.978;6.296;2022-09-09T09:22:50;9.57;;;2.08;;
49440;SDS011;35317;51.978;6.296;2022-09-09T09:27:59;9.45;;;2.05;;
49440;SDS011;35317;51.978;6.296;2022-09-09T09:33:18;10.40;;;2.55;;
49440;SDS011;35317;51.978;6.296;2022-09-09T09:43:34;11.70;;;2.00;;
49440;SDS011;35317;51.978;6.296;2022-09-09T09:48:41;9.10;;;2.20;;
49440;SDS011;35317;51.978;6.296;2022-09-09T09:53:42;10.23;;;2.63;;
49440;SDS011;35317;51.978;6.296;2022-09-09T10:03:49;7.22;;;1.33;;
49440;SDS011;35317;51.978;6.296;2022-09-09T10:08:52;5.05;;;1.67;;
49440;SDS011;35317;51.978;6.296;2022-09-09T10:13:55;9.35;;;2.30;;
49440;SDS011;35317;51.978;6.296;2022-09-09T10:19:21;10.65;;;2.00;;
49440;SDS011;35317;51.978;6.296;2022-09-09T10:35:34;16.77;;;2.63;;
49440;SDS011;35317;51.978;6.296;2022-09-09T10:40:50;14.55;;;2.47;;
49440;SDS011;35317;51.978;6.296;2022-09-09T10:57:33;10.07;;;1.70;;
49440;SDS011;35317;51.978;6.296;2022-09-09T11:02:36;7.00;;;1.30;;
49440;SDS011;35317;51.978;6.296;2022-09-09T11:07:40;8.10;;;1.55;;
49440;SDS011;35317;51.978;6.296;2022-09-09T11:12:47;6.78;;;1.45;;
49440;SDS011;35317;51.978;6.296;2022-09-09T11:17:52;9.00;;;1.40;;
49440;SDS011;35317;51.978;6.296;2022-09-09T11:23:04;7.65;;;1.65;;
49440;SDS011;35317;51.978;6.296;2022-09-09T11:34:11;13.05;;;2.10;;
49440;SDS011;35317;51.978;6.296;2022-09-09T11:39:51;8.23;;;2.00;;
49440;SDS011;35317;51.978;6.296;2022-09-09T11:45:21;6.15;;;1.42;;
49440;SDS011;35317;51.978;6.296;2022-09-09T11:50:29;5.33;;;1.57;;
49440;SDS011;35317;51.978;6.296;2022-09-09T11:55:36;7.47;;;1.73;;
49440;SDS011;35317;51.978;6.296;2022-09-09T12:00:38;6.50;;;1.60;;
49440;SDS011;35317;51.978;6.296;2022-09-09T12:05:48;6.38;;;1.60;;
49440;SDS011;35317;51.978;6.296;2022-09-09T12:10:55;2.60;;;0.88;;
49440;SDS011;35317;51.978;6.296;2022-09-09T12:15:59;3.90;;;1.02;;
49440;SDS011;35317;51.978;6.296;2022-09-09T12:26:35;7.18;;;1.73;;
49440;SDS011;35317;51.978;6.296;2022-09-09T12:37:02;6.45;;;1.45;;
49440;SDS011;35317;51.978;6.296;2022-09-09T12:42:22;7.20;;;1.50;;
49440;SDS011;35317;51.978;6.296;2022-09-09T12:47:26;6.05;;;1.50;;
49440;SDS011;35317;51.978;6.296;2022-09-09T12:52:55;5.72;;;2.20;;
49440;SDS011;35317;51.978;6.296;2022-09-09T12:57:59;7.60;;;2.80;;
49440;SDS011;35317;51.978;6.296;2022-09-09T13:03:14;8.75;;;3.33;;
49440;SDS011;35317;51.978;6.296;2022-09-09T13:08:18;8.30;;;3.67;;
49440;SDS011;35317;51.978;6.296;2022-09-09T13:13:23;6.32;;;2.55;;
49440;SDS011;35317;51.978;6.296;2022-09-09T13:18:40;5.07;;;2.20;;
49440;SDS011;35317;51.978;6.296;2022-09-09T13:23:42;5.53;;;2.03;;
49440;SDS011;35317;51.978;6.296;2022-09-09T13:28:51;6.40;;;2.33;;
49440;SDS011;35317;51.978;6.296;2022-09-09T13:34:26;6.68;;;2.30;;
49440;SDS011;35317;51.978;6.296;2022-09-09T13:39:30;4.35;;;2.03;;
49440;SDS011;35317;51.978;6.296;2022-09-09T13:44:31;3.65;;;1.73;;
49440;SDS011;35317;51.978;6.296;2022-09-09T13:49:39;6.72;;;2.03;;
49440;SDS011;35317;51.978;6.296;2022-09-09T13:54:40;5.97;;;1.85;;
49440;SDS011;35317;51.978;6.296;2022-09-09T13:59:41;7.20;;;2.28;;
49440;SDS011;35317;51.978;6.296;2022-09-09T14:04:42;4.88;;;2.05;;
49440;SDS011;35317;51.978;6.296;2022-09-09T14:09:44;6.85;;;1.98;;
49440;SDS011;35317;51.978;6.296;2022-09-09T14:14:49;4.28;;;1.85;;
49440;SDS011;35317;51.978;6.296;2022-09-09T14:19:50;5.88;;;1.92;;
49440;SDS011;35317;51.978;6.296;2022-09-09T14:24:52;5.82;;;1.60;;
49440;SDS011;35317;51.978;6.296;2022-09-09T14:29:53;5.43;;;2.03;;
49440;SDS011;35317;51.978;6.296;2022-09-09T14:34:54;6.78;;;2.03;;
49440;SDS011;35317;51.978;6.296;2022-09-09T14:39:55;9.93;;;2.60;;
49440;SDS011;35317;51.978;6.296;2022-09-09T14:44:56;8.95;;;2.10;;
49440;SDS011;35317;51.978;6.296;2022-09-09T14:49:56;7.15;;;2.78;;
49440;SDS011;35317;51.978;6.296;2022-09-09T14:54:57;7.57;;;3.05;;
49440;SDS011;35317;51.978;6.296;2022-09-09T14:59:58;5.28;;;2.15;;
49440;SDS011;35317;51.978;6.296;2022-09-09T15:04:59;7.80;;;2.58;;
49440;SDS011;35317;51.978;6.296;2022-09-09T15:10:01;6.50;;;2.17;;
49440;SDS011;35317;51.978;6.296;2022-09-09T15:15:03;9.30;;;2.40;;
49440;SDS011;35317;51.978;6.296;2022-09-09T15:20:05;8.93;;;2.80;;
49440;SDS011;35317;51.978;6.296;2022-09-09T15:25:06;8.18;;;2.40;;
49440;SDS011;35317;51.978;6.296;2022-09-09T15:30:08;7.18;;;2.10;;
49440;SDS011;35317;51.978;6.296;2022-09-09T15:35:09;6.10;;;1.83;;
49440;SDS011;35317;51.978;6.296;2022-09-09T15:40:10;7.53;;;1.88;;
49440;SDS011;35317;51.978;6.296;2022-09-09T15:45:11;5.45;;;1.83;;
49440;SDS011;35317;51.978;6.296;2022-09-09T15:50:12;5.72;;;1.55;;
49440;SDS011;35317;51.978;6.296;2022-09-09T15:55:13;6.22;;;1.80;;
49440;SDS011;35317;51.978;6.296;2022-09-09T16:00:14;7.95;;;2.30;;
49440;SDS011;35317;51.978;6.296;2022-09-09T16:05:16;3.92;;;1.40;;
49440;SDS011;35317;51.978;6.296;2022-09-09T16:10:17;7.82;;;1.95;;
49440;SDS011;35317;51.978;6.296;2022-09-09T16:15:18;5.68;;;1.58;;
49440;SDS011;35317;51.978;6.296;2022-09-09T16:20:22;7.75;;;2.03;;
49440;SDS011;35317;51.978;6.296;2022-09-09T16:25:23;6.53;;;2.15;;
49440;SDS011;35317;51.978;6.296;2022-09-09T16:30:24;7.15;;;2.10;;
49440;SDS011;35317;51.978;6.296;2022-09-09T16:35:24;6.60;;;2.25;;
49440;SDS011;35317;51.978;6.296;2022-09-09T16:40:28;5.60;;;1.80;;
49440;SDS011;35317;51.978;6.296;2022-09-09T16:45:28;7.88;;;2.72;;
49440;SDS011;35317;51.978;6.296;2022-09-09T16:50:30;10.00;;;1.88;;
49440;SDS011;35317;51.978;6.296;2022-09-09T16:55:31;8.50;;;2.78;;
49440;SDS011;35317;51.978;6.296;2022-09-09T17:00:32;18.85;;;5.18;;
49440;SDS011;35317;51.978;6.296;2022-09-09T17:05:38;16.23;;;3.03;;
49440;SDS011;35317;51.978;6.296;2022-09-09T17:10:41;5.10;;;1.48;;
49440;SDS011;35317;51.978;6.296;2022-09-09T17:15:42;5.95;;;2.28;;
49440;SDS011;35317;51.978;6.296;2022-09-09T17:20:43;5.43;;;2.28;;
49440;SDS011;35317;51.978;6.296;2022-09-09T17:25:44;9.20;;;3.75;;
49440;SDS011;35317;51.978;6.296;2022-09-09T17:41:30;7.70;;;4.10;;
49440;SDS011;35317;51.978;6.296;2022-09-09T17:46:34;7.15;;;3.70;;
49440;SDS011;35317;51.978;6.296;2022-09-09T17:51:46;10.93;;;6.07;;
49440;SDS011;35317;51.978;6.296;2022-09-09T17:56:47;10.40;;;4.47;;
49440;SDS011;35317;51.978;6.296;2022-09-09T18:01:52;7.30;;;4.97;;
49440;SDS011;35317;51.978;6.296;2022-09-09T18:06:57;10.10;;;4.78;;
49440;SDS011;35317;51.978;6.296;2022-09-09T18:11:58;11.05;;;4.57;;
49440;SDS011;35317;51.978;6.296;2022-09-09T18:17:00;7.00;;;4.70;;
49440;SDS011;35317;51.978;6.296;2022-09-09T18:22:03;9.02;;;5.20;;
49440;SDS011;35317;51.978;6.296;2022-09-09T18:27:05;7.38;;;4.45;;
49440;SDS011;35317;51.978;6.296;2022-09-09T18:32:06;9.73;;;5.25;;
49440;SDS011;35317;51.978;6.296;2022-09-09T18:37:07;8.10;;;5.82;;
49440;SDS011;35317;51.978;6.296;2022-09-09T18:42:09;8.43;;;5.80;;
49440;SDS011;35317;51.978;6.296;2022-09-09T18:47:12;9.20;;;5.68;;
49440;SDS011;35317;51.978;6.296;2022-09-09T18:52:13;11.10;;;6.68;;
49440;SDS011;35317;51.978;6.296;2022-09-09T18:57:14;9.02;;;5.95;;
49440;SDS011;35317;51.978;6.296;2022-09-09T19:02:15;13.63;;;7.80;;
49440;SDS011;35317;51.978;6.296;2022-09-09T19:07:15;11.57;;;8.10;;
49440;SDS011;35317;51.978;6.296;2022-09-09T19:12:18;12.02;;;7.25;;
49440;SDS011;35317;51.978;6.296;2022-09-09T19:17:19;10.30;;;8.15;;
49440;SDS011;35317;51.978;6.296;2022-09-09T19:22:20;11.93;;;7.28;;
49440;SDS011;35317;51.978;6.296;2022-09-09T19:27:20;14.77;;;9.77;;
49440;SDS011;35317;51.978;6.296;2022-09-09T19:32:22;15.63;;;10.25;;
49440;SDS011;35317;51.978;6.296;2022-09-09T19:37:23;14.50;;;10.75;;
49440;SDS011;35317;51.978;6.296;2022-09-09T19:42:24;17.13;;;12.20;;
49440;SDS011;35317;51.978;6.296;2022-09-09T19:47:25;16.98;;;11.70;;
49440;SDS011;35317;51.978;6.296;2022-09-09T19:52:25;17.58;;;13.23;;
49440;SDS011;35317;51.978;6.296;2022-09-09T19:57:26;23.00;;;14.90;;
49440;SDS011;35317;51.978;6.296;2022-09-09T20:02:29;14.30;;;10.97;;
49440;SDS011;35317;51.978;6.296;2022-09-09T20:07:30;16.10;;;11.40;;
49440;SDS011;35317;51.978;6.296;2022-09-09T20:12:32;14.85;;;11.30;;
49440;SDS011;35317;51.978;6.296;2022-09-09T20:17:33;17.15;;;11.93;;
49440;SDS011;35317;51.978;6.296;2022-09-09T20:22:33;10.88;;;9.48;;
49440;SDS011;35317;51.978;6.296;2022-09-09T20:27:35;13.57;;;9.27;;
49440;SDS011;35317;51.978;6.296;2022-09-09T20:32:35;15.40;;;10.57;;
49440;SDS011;35317;51.978;6.296;2022-09-09T20:37:38;14.50;;;8.82;;
49440;SDS011;35317;51.978;6.296;2022-09-09T20:42:39;15.17;;;10.50;;
49440;SDS011;35317;51.978;6.296;2022-09-09T20:47:40;14.50;;;10.02;;
49440;SDS011;35317;51.978;6.296;2022-09-09T20:52:41;15.80;;;10.75;;
49440;SDS011;35317;51.978;6.296;2022-09-09T20:57:42;20.30;;;13.10;;
49440;SDS011;35317;51.978;6.296;2022-09-09T21:02:42;17.52;;;12.50;;
49440;SDS011;35317;51.978;6.296;2022-09-09T21:07:43;22.60;;;12.73;;
49440;SDS011;35317;51.978;6.296;2022-09-09T21:12:45;22.35;;;13.35;;
49440;SDS011;35317;51.978;6.296;2022-09-09T21:17:46;20.42;;;14.20;;
49440;SDS011;35317;51.978;6.296;2022-09-09T21:22:46;31.75;;;17.88;;
49440;SDS011;35317;51.978;6.296;2022-09-09T21:27:47;23.00;;;16.38;;
49440;SDS011;35317;51.978;6.296;2022-09-09T21:32:48;30.48;;;18.30;;
49440;SDS011;35317;51.978;6.296;2022-09-09T21:37:48;37.53;;;19.27;;
49440;SDS011;35317;51.978;6.296;2022-09-09T21:42:49;26.77;;;18.10;;
49440;SDS011;35317;51.978;6.296;2022-09-09T21:47:50;29.80;;;20.67;;
49440;SDS011;35317;51.978;6.296;2022-09-09T21:52:51;31.70;;;18.58;;
49440;SDS011;35317;51.978;6.296;2022-09-09T21:57:52;40.78;;;21.45;;
49440;SDS011;35317;51.978;6.296;2022-09-09T22:02:53;33.97;;;21.73;;
49440;SDS011;35317;51.978;6.296;2022-09-09T22:08:14;42.90;;;23.83;;
49440;SDS011;35317;51.978;6.296;2022-09-09T22:13:17;28.83;;;21.15;;
49440;SDS011;35317;51.978;6.296;2022-09-09T22:18:39;48.80;;;26.35;;
49440;SDS011;35317;51.978;6.296;2022-09-09T22:23:41;40.50;;;23.27;;
49440;SDS011;35317;51.978;6.296;2022-09-09T22:28:42;39.97;;;23.95;;
49440;SDS011;35317;51.978;6.296;2022-09-09T22:33:43;41.00;;;23.45;;
49440;SDS011;35317;51.978;6.296;2022-09-09T22:39:04;31.10;;;20.65;;
49440;SDS011;35317;51.978;6.296;2022-09-09T22:44:06;37.38;;;21.77;;
49440;SDS011;35317;51.978;6.296;2022-09-09T22:49:09;41.80;;;23.08;;
49440;SDS011;35317;51.978;6.296;2022-09-09T22:54:10;37.10;;;22.33;;
49440;SDS011;35317;51.978;6.296;2022-09-09T22:59:10;38.90;;;22.17;;
49440;SDS011;35317;51.978;6.296;2022-09-09T23:04:11;31.50;;;18.88;;
49440;SDS011;35317;51.978;6.296;2022-09-09T23:09:13;33.25;;;20.15;;
49440;SDS011;35317;51.978;6.296;2022-09-09T23:14:13;32.42;;;18.52;;
49440;SDS011;35317;51.978;6.296;2022-09-09T23:19:14;39.88;;;20.42;;
49440;SDS011;35317;51.978;6.296;2022-09-09T23:24:16;34.20;;;18.80;;
49440;SDS011;35317;51.978;6.296;2022-09-09T23:29:18;32.60;;;17.75;;
49440;SDS011;35317;51.978;6.296;2022-09-09T23:34:18;25.88;;;16.85;;
49440;SDS011;35317;51.978;6.296;2022-09-09T23:39:19;27.63;;;13.35;;
49440;SDS011;35317;51.978;6.296;2022-09-09T23:44:22;17.88;;;11.25;;
49440;SDS011;35317;51.978;6.296;2022-09-09T23:49:22;22.73;;;11.95;;
49440;SDS011;35317;51.978;6.296;2022-09-09T23:54:25;21.48;;;12.50;;
49440;SDS011;35317;51.978;6.296;2022-09-09T23:59:26;27.13;;;11.95;;
